sensor_id;sensor_type;location;lat;lon;timestamp;pressure;altitude;pressure_sealevel;temperature
38114;BMP180;23926;53.222;6.354;2023-05-07T00:01:42;101640.00;;;17.20
38114;BMP180;23926;53.222;6.354;2023-05-07T00:04:08;101631.00;;;17.20
38114;BMP180;23926;53.222;6.354;2023-05-07T00:06:33;101629.00;;;17.20
38114;BMP180;23926;53.222;6.354;2023-05-07T00:08:59;101636.00;;;17.20
38114;BMP180;23926;53.222;6.354;2023-05-07T00:11:26;101636.00;;;17.10
38114;BMP180;23926;53.222;6.354;2023-05-07T00:13:51;101640.00;;;17.10
38114;BMP180;23926;53.222;6.354;2023-05-07T00:16:17;101645.00;;;17.10
38114;BMP180;23926;53.222;6.354;2023-05-07T00:18:42;101631.00;;;17.10
38114;BMP180;23926;53.222;6.354;2023-05-07T00:21:08;101636.00;;;17.20
38114;BMP180;23926;53.222;6.354;2023-05-07T00:23:33;101644.00;;;17.10
38114;BMP180;23926;53.222;6.354;2023-05-07T00:25:58;101658.00;;;17.10
38114;BMP180;23926;53.222;6.354;2023-05-07T00:28:24;101646.00;;;17.00
38114;BMP180;23926;53.222;6.354;2023-05-07T00:30:49;101650.00;;;17.00
38114;BMP180;23926;53.222;6.354;2023-05-07T00:33:15;101654.00;;;17.00
38114;BMP180;23926;53.222;6.354;2023-05-07T00:35:42;101659.00;;;16.90
38114;BMP180;23926;53.222;6.354;2023-05-07T00:38:07;101648.00;;;16.80
38114;BMP180;23926;53.222;6.354;2023-05-07T00:40:33;101665.00;;;16.80
38114;BMP180;23926;53.222;6.354;2023-05-07T00:42:58;101652.00;;;16.80
38114;BMP180;23926;53.222;6.354;2023-05-07T00:45:28;101654.00;;;16.80
38114;BMP180;23926;53.222;6.354;2023-05-07T00:47:59;101658.00;;;16.80
38114;BMP180;23926;53.222;6.354;2023-05-07T00:50:25;101656.00;;;16.80
38114;BMP180;23926;53.222;6.354;2023-05-07T00:52:51;101665.00;;;16.80
38114;BMP180;23926;53.222;6.354;2023-05-07T00:55:17;101656.00;;;16.90
38114;BMP180;23926;53.222;6.354;2023-05-07T00:57:43;101659.00;;;16.90
38114;BMP180;23926;53.222;6.354;2023-05-07T01:00:10;101651.00;;;16.90
38114;BMP180;23926;53.222;6.354;2023-05-07T01:02:40;101648.00;;;16.90
38114;BMP180;23926;53.222;6.354;2023-05-07T01:05:08;101657.00;;;16.90
38114;BMP180;23926;53.222;6.354;2023-05-07T01:07:35;101649.00;;;16.90
38114;BMP180;23926;53.222;6.354;2023-05-07T01:10:03;101660.00;;;16.90
38114;BMP180;23926;53.222;6.354;2023-05-07T01:12:30;101655.00;;;16.90
38114;BMP180;23926;53.222;6.354;2023-05-07T01:14:57;101664.00;;;16.80
38114;BMP180;23926;53.222;6.354;2023-05-07T01:17:22;101654.00;;;16.80
38114;BMP180;23926;53.222;6.354;2023-05-07T01:19:48;101662.00;;;16.80
38114;BMP180;23926;53.222;6.354;2023-05-07T01:22:14;101658.00;;;16.80
38114;BMP180;23926;53.222;6.354;2023-05-07T01:24:41;101653.00;;;16.70
38114;BMP180;23926;53.222;6.354;2023-05-07T01:27:06;101637.00;;;16.70
38114;BMP180;23926;53.222;6.354;2023-05-07T01:29:32;101637.00;;;16.60
38114;BMP180;23926;53.222;6.354;2023-05-07T01:31:59;101648.00;;;16.60
38114;BMP180;23926;53.222;6.354;2023-05-07T01:34:26;101649.00;;;16.50
38114;BMP180;23926;53.222;6.354;2023-05-07T01:36:53;101649.00;;;16.50
38114;BMP180;23926;53.222;6.354;2023-05-07T01:39:20;101657.00;;;16.50
38114;BMP180;23926;53.222;6.354;2023-05-07T01:41:46;101642.00;;;16.50
38114;BMP180;23926;53.222;6.354;2023-05-07T01:44:12;101655.00;;;16.50
38114;BMP180;23926;53.222;6.354;2023-05-07T01:46:38;101628.00;;;16.40
38114;BMP180;23926;53.222;6.354;2023-05-07T01:49:04;101635.00;;;16.40
38114;BMP180;23926;53.222;6.354;2023-05-07T01:51:30;101648.00;;;16.30
38114;BMP180;23926;53.222;6.354;2023-05-07T01:53:56;101650.00;;;16.30
38114;BMP180;23926;53.222;6.354;2023-05-07T01:56:24;101644.00;;;16.30
38114;BMP180;23926;53.222;6.354;2023-05-07T01:58:50;101649.00;;;16.20
38114;BMP180;23926;53.222;6.354;2023-05-07T02:01:17;101639.00;;;16.20
38114;BMP180;23926;53.222;6.354;2023-05-07T02:03:42;101634.00;;;16.20
38114;BMP180;23926;53.222;6.354;2023-05-07T02:06:08;101649.00;;;16.20
38114;BMP180;23926;53.222;6.354;2023-05-07T02:08:33;101648.00;;;16.20
38114;BMP180;23926;53.222;6.354;2023-05-07T02:10:58;101638.00;;;16.10
38114;BMP180;23926;53.222;6.354;2023-05-07T02:13:25;101641.00;;;16.10
38114;BMP180;23926;53.222;6.354;2023-05-07T02:15:50;101653.00;;;16.10
38114;BMP180;23926;53.222;6.354;2023-05-07T02:18:16;101635.00;;;16.10
38114;BMP180;23926;53.222;6.354;2023-05-07T02:20:42;101650.00;;;16.10
38114;BMP180;23926;53.222;6.354;2023-05-07T02:23:07;101645.00;;;16.20
38114;BMP180;23926;53.222;6.354;2023-05-07T02:25:33;101648.00;;;16.10
38114;BMP180;23926;53.222;6.354;2023-05-07T02:27:58;101645.00;;;16.10
38114;BMP180;23926;53.222;6.354;2023-05-07T02:30:25;101651.00;;;16.00
38114;BMP180;23926;53.222;6.354;2023-05-07T02:32:51;101655.00;;;16.10
38114;BMP180;23926;53.222;6.354;2023-05-07T02:35:16;101640.00;;;15.90
38114;BMP180;23926;53.222;6.354;2023-05-07T02:37:42;101649.00;;;16.00
38114;BMP180;23926;53.222;6.354;2023-05-07T02:40:07;101658.00;;;16.00
38114;BMP180;23926;53.222;6.354;2023-05-07T02:42:33;101653.00;;;15.90
38114;BMP180;23926;53.222;6.354;2023-05-07T02:44:59;101642.00;;;15.90
38114;BMP180;23926;53.222;6.354;2023-05-07T02:47:24;101653.00;;;15.90
38114;BMP180;23926;53.222;6.354;2023-05-07T02:49:53;101645.00;;;15.80
38114;BMP180;23926;53.222;6.354;2023-05-07T02:52:18;101654.00;;;15.90
38114;BMP180;23926;53.222;6.354;2023-05-07T02:54:43;101655.00;;;15.90
38114;BMP180;23926;53.222;6.354;2023-05-07T02:57:09;101649.00;;;15.90
38114;BMP180;23926;53.222;6.354;2023-05-07T02:59:34;101647.00;;;15.80
38114;BMP180;23926;53.222;6.354;2023-05-07T03:01:59;101648.00;;;15.80
38114;BMP180;23926;53.222;6.354;2023-05-07T03:04:25;101653.00;;;15.80
38114;BMP180;23926;53.222;6.354;2023-05-07T03:06:50;101649.00;;;15.80
38114;BMP180;23926;53.222;6.354;2023-05-07T03:09:16;101640.00;;;15.80
38114;BMP180;23926;53.222;6.354;2023-05-07T03:11:42;101645.00;;;15.80
38114;BMP180;23926;53.222;6.354;2023-05-07T03:14:07;101641.00;;;15.80
38114;BMP180;23926;53.222;6.354;2023-05-07T03:16:32;101646.00;;;15.70
38114;BMP180;23926;53.222;6.354;2023-05-07T03:18:58;101640.00;;;15.70
38114;BMP180;23926;53.222;6.354;2023-05-07T03:21:23;101641.00;;;15.70
38114;BMP180;23926;53.222;6.354;2023-05-07T03:23:49;101638.00;;;15.80
38114;BMP180;23926;53.222;6.354;2023-05-07T03:26:14;101641.00;;;15.70
38114;BMP180;23926;53.222;6.354;2023-05-07T03:28:40;101667.00;;;15.70
38114;BMP180;23926;53.222;6.354;2023-05-07T03:31:05;101648.00;;;15.70
38114;BMP180;23926;53.222;6.354;2023-05-07T03:33:33;101641.00;;;15.80
38114;BMP180;23926;53.222;6.354;2023-05-07T03:35:58;101650.00;;;15.80
38114;BMP180;23926;53.222;6.354;2023-05-07T03:38:24;101649.00;;;15.80
38114;BMP180;23926;53.222;6.354;2023-05-07T03:40:49;101649.00;;;15.90
38114;BMP180;23926;53.222;6.354;2023-05-07T03:43:14;101656.00;;;15.90
38114;BMP180;23926;53.222;6.354;2023-05-07T03:45:40;101645.00;;;15.80
38114;BMP180;23926;53.222;6.354;2023-05-07T03:48:05;101654.00;;;15.70
38114;BMP180;23926;53.222;6.354;2023-05-07T03:50:31;101644.00;;;15.80
38114;BMP180;23926;53.222;6.354;2023-05-07T03:52:56;101662.00;;;15.80
38114;BMP180;23926;53.222;6.354;2023-05-07T03:55:21;101650.00;;;15.80
38114;BMP180;23926;53.222;6.354;2023-05-07T03:57:47;101663.00;;;15.80
38114;BMP180;23926;53.222;6.354;2023-05-07T04:00:13;101671.00;;;15.80
38114;BMP180;23926;53.222;6.354;2023-05-07T04:02:38;101669.00;;;15.80
38114;BMP180;23926;53.222;6.354;2023-05-07T04:05:04;101671.00;;;15.80
38114;BMP180;23926;53.222;6.354;2023-05-07T04:07:30;101671.00;;;15.80
38114;BMP180;23926;53.222;6.354;2023-05-07T04:09:55;101677.00;;;15.80
38114;BMP180;23926;53.222;6.354;2023-05-07T04:12:20;101671.00;;;15.80
38114;BMP180;23926;53.222;6.354;2023-05-07T04:14:46;101675.00;;;15.70
38114;BMP180;23926;53.222;6.354;2023-05-07T04:17:11;101667.00;;;15.80
38114;BMP180;23926;53.222;6.354;2023-05-07T04:19:37;101675.00;;;15.90
38114;BMP180;23926;53.222;6.354;2023-05-07T04:22:02;101668.00;;;15.90
38114;BMP180;23926;53.222;6.354;2023-05-07T04:24:31;101671.00;;;15.80
38114;BMP180;23926;53.222;6.354;2023-05-07T04:26:57;101682.00;;;15.80
38114;BMP180;23926;53.222;6.354;2023-05-07T04:29:23;101678.00;;;15.70
38114;BMP180;23926;53.222;6.354;2023-05-07T04:31:49;101687.00;;;15.80
38114;BMP180;23926;53.222;6.354;2023-05-07T04:34:15;101672.00;;;15.80
38114;BMP180;23926;53.222;6.354;2023-05-07T04:36:40;101681.00;;;15.80
38114;BMP180;23926;53.222;6.354;2023-05-07T04:39:05;101679.00;;;15.80
38114;BMP180;23926;53.222;6.354;2023-05-07T04:41:31;101672.00;;;15.80
38114;BMP180;23926;53.222;6.354;2023-05-07T04:43:57;101680.00;;;15.80
38114;BMP180;23926;53.222;6.354;2023-05-07T04:46:24;101682.00;;;15.80
38114;BMP180;23926;53.222;6.354;2023-05-07T04:48:50;101684.00;;;15.70
38114;BMP180;23926;53.222;6.354;2023-05-07T04:51:15;101680.00;;;15.60
38114;BMP180;23926;53.222;6.354;2023-05-07T04:53:40;101679.00;;;15.60
38114;BMP180;23926;53.222;6.354;2023-05-07T04:56:06;101692.00;;;15.70
38114;BMP180;23926;53.222;6.354;2023-05-07T04:58:32;101690.00;;;15.60
38114;BMP180;23926;53.222;6.354;2023-05-07T05:00:58;101685.00;;;15.60
38114;BMP180;23926;53.222;6.354;2023-05-07T05:03:24;101687.00;;;15.60
38114;BMP180;23926;53.222;6.354;2023-05-07T05:05:50;101673.00;;;15.60
38114;BMP180;23926;53.222;6.354;2023-05-07T05:08:16;101674.00;;;15.50
38114;BMP180;23926;53.222;6.354;2023-05-07T05:10:42;101688.00;;;15.60
38114;BMP180;23926;53.222;6.354;2023-05-07T05:13:08;101697.00;;;15.50
38114;BMP180;23926;53.222;6.354;2023-05-07T05:15:34;101692.00;;;15.70
38114;BMP180;23926;53.222;6.354;2023-05-07T05:18:00;101704.00;;;15.70
38114;BMP180;23926;53.222;6.354;2023-05-07T05:20:25;101690.00;;;15.60
38114;BMP180;23926;53.222;6.354;2023-05-07T05:22:51;101701.00;;;15.60
38114;BMP180;23926;53.222;6.354;2023-05-07T05:25:16;101703.00;;;15.70
38114;BMP180;23926;53.222;6.354;2023-05-07T05:27:41;101705.00;;;15.70
38114;BMP180;23926;53.222;6.354;2023-05-07T05:30:07;101701.00;;;15.60
38114;BMP180;23926;53.222;6.354;2023-05-07T05:32:33;101708.00;;;15.70
38114;BMP180;23926;53.222;6.354;2023-05-07T05:34:58;101722.00;;;15.70
38114;BMP180;23926;53.222;6.354;2023-05-07T05:37:24;101709.00;;;15.70
38114;BMP180;23926;53.222;6.354;2023-05-07T05:39:50;101716.00;;;15.70
38114;BMP180;23926;53.222;6.354;2023-05-07T05:42:15;101715.00;;;15.60
38114;BMP180;23926;53.222;6.354;2023-05-07T05:44:40;101704.00;;;15.60
38114;BMP180;23926;53.222;6.354;2023-05-07T05:47:06;101727.00;;;15.70
38114;BMP180;23926;53.222;6.354;2023-05-07T05:49:31;101708.00;;;15.70
38114;BMP180;23926;53.222;6.354;2023-05-07T05:51:57;101720.00;;;15.70
38114;BMP180;23926;53.222;6.354;2023-05-07T05:54:22;101717.00;;;15.70
38114;BMP180;23926;53.222;6.354;2023-05-07T05:56:48;101717.00;;;15.80
38114;BMP180;23926;53.222;6.354;2023-05-07T05:59:14;101719.00;;;15.70
38114;BMP180;23926;53.222;6.354;2023-05-07T06:01:40;101730.00;;;15.80
38114;BMP180;23926;53.222;6.354;2023-05-07T06:04:05;101723.00;;;15.90
38114;BMP180;23926;53.222;6.354;2023-05-07T06:06:31;101721.00;;;15.90
38114;BMP180;23926;53.222;6.354;2023-05-07T06:08:57;101721.00;;;16.00
38114;BMP180;23926;53.222;6.354;2023-05-07T06:11:22;101737.00;;;16.00
38114;BMP180;23926;53.222;6.354;2023-05-07T06:13:48;101731.00;;;15.80
38114;BMP180;23926;53.222;6.354;2023-05-07T06:16:14;101730.00;;;16.00
38114;BMP180;23926;53.222;6.354;2023-05-07T06:18:40;101733.00;;;16.00
38114;BMP180;23926;53.222;6.354;2023-05-07T06:21:05;101742.00;;;16.10
38114;BMP180;23926;53.222;6.354;2023-05-07T06:23:31;101741.00;;;16.10
38114;BMP180;23926;53.222;6.354;2023-05-07T06:25:56;101741.00;;;16.30
38114;BMP180;23926;53.222;6.354;2023-05-07T06:28:21;101735.00;;;16.30
38114;BMP180;23926;53.222;6.354;2023-05-07T06:30:47;101743.00;;;16.30
38114;BMP180;23926;53.222;6.354;2023-05-07T06:33:15;101731.00;;;16.30
38114;BMP180;23926;53.222;6.354;2023-05-07T06:35:40;101749.00;;;16.30
38114;BMP180;23926;53.222;6.354;2023-05-07T06:38:06;101744.00;;;16.20
38114;BMP180;23926;53.222;6.354;2023-05-07T06:40:31;101751.00;;;16.20
38114;BMP180;23926;53.222;6.354;2023-05-07T06:42:56;101753.00;;;16.20
38114;BMP180;23926;53.222;6.354;2023-05-07T06:45:22;101744.00;;;16.30
38114;BMP180;23926;53.222;6.354;2023-05-07T06:47:47;101753.00;;;16.30
38114;BMP180;23926;53.222;6.354;2023-05-07T06:50:13;101749.00;;;16.30
38114;BMP180;23926;53.222;6.354;2023-05-07T06:52:38;101746.00;;;16.30
38114;BMP180;23926;53.222;6.354;2023-05-07T06:55:04;101737.00;;;16.20
38114;BMP180;23926;53.222;6.354;2023-05-07T06:57:30;101738.00;;;16.20
38114;BMP180;23926;53.222;6.354;2023-05-07T06:59:55;101751.00;;;16.20
38114;BMP180;23926;53.222;6.354;2023-05-07T07:02:21;101748.00;;;16.20
38114;BMP180;23926;53.222;6.354;2023-05-07T07:04:46;101756.00;;;16.20
38114;BMP180;23926;53.222;6.354;2023-05-07T07:07:11;101755.00;;;16.10
38114;BMP180;23926;53.222;6.354;2023-05-07T07:09:37;101767.00;;;16.10
38114;BMP180;23926;53.222;6.354;2023-05-07T07:12:02;101766.00;;;16.00
38114;BMP180;23926;53.222;6.354;2023-05-07T07:14:28;101764.00;;;16.00
38114;BMP180;23926;53.222;6.354;2023-05-07T07:16:53;101765.00;;;16.00
38114;BMP180;23926;53.222;6.354;2023-05-07T07:19:19;101767.00;;;15.80
38114;BMP180;23926;53.222;6.354;2023-05-07T07:21:45;101769.00;;;15.80
38114;BMP180;23926;53.222;6.354;2023-05-07T07:24:11;101763.00;;;15.80
38114;BMP180;23926;53.222;6.354;2023-05-07T07:26:36;101766.00;;;15.80
38114;BMP180;23926;53.222;6.354;2023-05-07T07:29:01;101761.00;;;15.90
38114;BMP180;23926;53.222;6.354;2023-05-07T07:31:27;101769.00;;;15.90
38114;BMP180;23926;53.222;6.354;2023-05-07T07:33:52;101765.00;;;15.80
38114;BMP180;23926;53.222;6.354;2023-05-07T07:36:18;101771.00;;;15.80
38114;BMP180;23926;53.222;6.354;2023-05-07T07:38:43;101777.00;;;15.80
38114;BMP180;23926;53.222;6.354;2023-05-07T07:41:09;101780.00;;;15.80
38114;BMP180;23926;53.222;6.354;2023-05-07T07:43:34;101774.00;;;15.90
38114;BMP180;23926;53.222;6.354;2023-05-07T07:46:00;101775.00;;;15.90
38114;BMP180;23926;53.222;6.354;2023-05-07T07:48:26;101772.00;;;16.00
38114;BMP180;23926;53.222;6.354;2023-05-07T07:50:51;101784.00;;;16.10
38114;BMP180;23926;53.222;6.354;2023-05-07T07:53:17;101772.00;;;16.20
38114;BMP180;23926;53.222;6.354;2023-05-07T07:55:42;101771.00;;;16.10
38114;BMP180;23926;53.222;6.354;2023-05-07T07:58:08;101780.00;;;16.20
38114;BMP180;23926;53.222;6.354;2023-05-07T08:00:33;101776.00;;;16.20
38114;BMP180;23926;53.222;6.354;2023-05-07T08:02:58;101784.00;;;16.30
38114;BMP180;23926;53.222;6.354;2023-05-07T08:05:24;101783.00;;;16.30
38114;BMP180;23926;53.222;6.354;2023-05-07T08:07:50;101781.00;;;16.40
38114;BMP180;23926;53.222;6.354;2023-05-07T08:10:18;101784.00;;;16.50
38114;BMP180;23926;53.222;6.354;2023-05-07T08:12:50;101780.00;;;16.70
38114;BMP180;23926;53.222;6.354;2023-05-07T08:15:15;101786.00;;;16.80
38114;BMP180;23926;53.222;6.354;2023-05-07T08:17:41;101783.00;;;17.00
38114;BMP180;23926;53.222;6.354;2023-05-07T08:20:07;101788.00;;;17.10
38114;BMP180;23926;53.222;6.354;2023-05-07T08:22:34;101790.00;;;17.20
38114;BMP180;23926;53.222;6.354;2023-05-07T08:24:59;101782.00;;;17.30
38114;BMP180;23926;53.222;6.354;2023-05-07T08:27:25;101794.00;;;17.50
38114;BMP180;23926;53.222;6.354;2023-05-07T08:29:51;101794.00;;;17.50
38114;BMP180;23926;53.222;6.354;2023-05-07T08:32:16;101770.00;;;17.70
38114;BMP180;23926;53.222;6.354;2023-05-07T08:34:42;101784.00;;;17.80
38114;BMP180;23926;53.222;6.354;2023-05-07T08:37:07;101790.00;;;17.80
38114;BMP180;23926;53.222;6.354;2023-05-07T08:39:32;101798.00;;;17.80
38114;BMP180;23926;53.222;6.354;2023-05-07T08:42:00;101794.00;;;17.90
38114;BMP180;23926;53.222;6.354;2023-05-07T08:44:28;101798.00;;;18.00
38114;BMP180;23926;53.222;6.354;2023-05-07T08:46:56;101800.00;;;18.10
38114;BMP180;23926;53.222;6.354;2023-05-07T08:49:23;101812.00;;;18.10
38114;BMP180;23926;53.222;6.354;2023-05-07T08:51:48;101801.00;;;18.10
38114;BMP180;23926;53.222;6.354;2023-05-07T08:54:18;101813.00;;;18.10
38114;BMP180;23926;53.222;6.354;2023-05-07T08:56:44;101812.00;;;18.10
38114;BMP180;23926;53.222;6.354;2023-05-07T08:59:10;101808.00;;;18.10
38114;BMP180;23926;53.222;6.354;2023-05-07T09:01:36;101809.00;;;18.10
38114;BMP180;23926;53.222;6.354;2023-05-07T09:04:01;101800.00;;;18.20
38114;BMP180;23926;53.222;6.354;2023-05-07T09:06:27;101802.00;;;18.30
38114;BMP180;23926;53.222;6.354;2023-05-07T09:08:53;101805.00;;;18.40
38114;BMP180;23926;53.222;6.354;2023-05-07T09:11:20;101798.00;;;18.60
38114;BMP180;23926;53.222;6.354;2023-05-07T09:13:46;101796.00;;;18.70
38114;BMP180;23926;53.222;6.354;2023-05-07T09:16:12;101800.00;;;19.00
38114;BMP180;23926;53.222;6.354;2023-05-07T09:18:42;101803.00;;;19.00
38114;BMP180;23926;53.222;6.354;2023-05-07T09:21:14;101798.00;;;19.20
38114;BMP180;23926;53.222;6.354;2023-05-07T09:23:40;101797.00;;;19.40
38114;BMP180;23926;53.222;6.354;2023-05-07T09:26:06;101800.00;;;19.40
38114;BMP180;23926;53.222;6.354;2023-05-07T09:28:38;101804.00;;;19.60
38114;BMP180;23926;53.222;6.354;2023-05-07T09:31:05;101810.00;;;19.70
38114;BMP180;23926;53.222;6.354;2023-05-07T09:33:31;101800.00;;;19.70
38114;BMP180;23926;53.222;6.354;2023-05-07T09:35:56;101799.00;;;19.70
38114;BMP180;23926;53.222;6.354;2023-05-07T09:38:21;101803.00;;;19.70
38114;BMP180;23926;53.222;6.354;2023-05-07T09:40:47;101811.00;;;19.70
38114;BMP180;23926;53.222;6.354;2023-05-07T09:43:13;101811.00;;;19.70
38114;BMP180;23926;53.222;6.354;2023-05-07T09:45:39;101808.00;;;19.80
38114;BMP180;23926;53.222;6.354;2023-05-07T09:48:05;101807.00;;;20.00
38114;BMP180;23926;53.222;6.354;2023-05-07T09:50:51;101806.00;;;20.10
38114;BMP180;23926;53.222;6.354;2023-05-07T09:53:20;101805.00;;;20.30
38114;BMP180;23926;53.222;6.354;2023-05-07T09:55:46;101807.00;;;20.40
38114;BMP180;23926;53.222;6.354;2023-05-07T09:58:12;101810.00;;;20.50
38114;BMP180;23926;53.222;6.354;2023-05-07T10:00:39;101810.00;;;20.70
38114;BMP180;23926;53.222;6.354;2023-05-07T10:03:05;101795.00;;;20.80
38114;BMP180;23926;53.222;6.354;2023-05-07T10:05:32;101811.00;;;20.90
38114;BMP180;23926;53.222;6.354;2023-05-07T10:07:58;101814.00;;;21.00
38114;BMP180;23926;53.222;6.354;2023-05-07T10:10:24;101823.00;;;21.20
38114;BMP180;23926;53.222;6.354;2023-05-07T10:12:50;101814.00;;;21.30
38114;BMP180;23926;53.222;6.354;2023-05-07T10:15:16;101804.00;;;21.30
38114;BMP180;23926;53.222;6.354;2023-05-07T10:17:42;101817.00;;;21.30
38114;BMP180;23926;53.222;6.354;2023-05-07T10:20:08;101817.00;;;21.40
38114;BMP180;23926;53.222;6.354;2023-05-07T10:22:41;101823.00;;;21.40
38114;BMP180;23926;53.222;6.354;2023-05-07T10:25:34;101820.00;;;21.30
38114;BMP180;23926;53.222;6.354;2023-05-07T10:28:06;101820.00;;;21.30
38114;BMP180;23926;53.222;6.354;2023-05-07T10:33:24;101823.00;;;21.20
38114;BMP180;23926;53.222;6.354;2023-05-07T10:35:51;101821.00;;;21.20
38114;BMP180;23926;53.222;6.354;2023-05-07T10:38:20;101822.00;;;21.30
38114;BMP180;23926;53.222;6.354;2023-05-07T10:40:46;101831.00;;;21.60
38114;BMP180;23926;53.222;6.354;2023-05-07T10:43:11;101827.00;;;21.60
38114;BMP180;23926;53.222;6.354;2023-05-07T10:45:37;101829.00;;;21.80
38114;BMP180;23926;53.222;6.354;2023-05-07T10:48:13;101823.00;;;21.90
38114;BMP180;23926;53.222;6.354;2023-05-07T10:50:45;101826.00;;;21.90
38114;BMP180;23926;53.222;6.354;2023-05-07T10:55:49;101823.00;;;21.90
38114;BMP180;23926;53.222;6.354;2023-05-07T11:00:50;101825.00;;;21.70
38114;BMP180;23926;53.222;6.354;2023-05-07T11:03:16;101815.00;;;21.50
38114;BMP180;23926;53.222;6.354;2023-05-07T11:05:42;101806.00;;;21.40
38114;BMP180;23926;53.222;6.354;2023-05-07T11:08:11;101815.00;;;21.40
38114;BMP180;23926;53.222;6.354;2023-05-07T11:10:56;101817.00;;;21.30
38114;BMP180;23926;53.222;6.354;2023-05-07T11:13:52;101814.00;;;21.30
38114;BMP180;23926;53.222;6.354;2023-05-07T11:16:23;101815.00;;;21.40
38114;BMP180;23926;53.222;6.354;2023-05-07T11:18:50;101812.00;;;21.40
38114;BMP180;23926;53.222;6.354;2023-05-07T11:24:00;101815.00;;;21.40
38114;BMP180;23926;53.222;6.354;2023-05-07T11:26:29;101813.00;;;21.60
38114;BMP180;23926;53.222;6.354;2023-05-07T11:28:54;101815.00;;;21.40
38114;BMP180;23926;53.222;6.354;2023-05-07T11:31:27;101822.00;;;21.40
38114;BMP180;23926;53.222;6.354;2023-05-07T11:33:53;101826.00;;;21.30
38114;BMP180;23926;53.222;6.354;2023-05-07T11:36:21;101826.00;;;21.50
38114;BMP180;23926;53.222;6.354;2023-05-07T11:38:47;101823.00;;;21.50
38114;BMP180;23926;53.222;6.354;2023-05-07T11:41:12;101832.00;;;21.40
38114;BMP180;23926;53.222;6.354;2023-05-07T11:43:38;101824.00;;;21.30
38114;BMP180;23926;53.222;6.354;2023-05-07T11:46:12;101830.00;;;21.50
38114;BMP180;23926;53.222;6.354;2023-05-07T11:48:39;101825.00;;;21.50
38114;BMP180;23926;53.222;6.354;2023-05-07T11:51:06;101841.00;;;21.60
38114;BMP180;23926;53.222;6.354;2023-05-07T11:53:41;101839.00;;;21.60
38114;BMP180;23926;53.222;6.354;2023-05-07T11:56:14;101832.00;;;21.60
38114;BMP180;23926;53.222;6.354;2023-05-07T11:58:41;101841.00;;;21.40
38114;BMP180;23926;53.222;6.354;2023-05-07T12:01:11;101837.00;;;21.60
38114;BMP180;23926;53.222;6.354;2023-05-07T12:03:37;101837.00;;;21.70
38114;BMP180;23926;53.222;6.354;2023-05-07T12:06:08;101848.00;;;22.00
38114;BMP180;23926;53.222;6.354;2023-05-07T12:08:36;101849.00;;;22.10
38114;BMP180;23926;53.222;6.354;2023-05-07T12:11:03;101850.00;;;22.20
38114;BMP180;23926;53.222;6.354;2023-05-07T12:13:28;101846.00;;;22.40
38114;BMP180;23926;53.222;6.354;2023-05-07T12:15:56;101841.00;;;22.70
38114;BMP180;23926;53.222;6.354;2023-05-07T12:18:22;101831.00;;;22.90
38114;BMP180;23926;53.222;6.354;2023-05-07T12:20:49;101838.00;;;23.00
38114;BMP180;23926;53.222;6.354;2023-05-07T12:23:15;101840.00;;;23.00
38114;BMP180;23926;53.222;6.354;2023-05-07T12:25:43;101834.00;;;23.10
38114;BMP180;23926;53.222;6.354;2023-05-07T12:28:13;101844.00;;;23.10
38114;BMP180;23926;53.222;6.354;2023-05-07T12:30:42;101839.00;;;23.00
38114;BMP180;23926;53.222;6.354;2023-05-07T12:33:08;101831.00;;;22.90
38114;BMP180;23926;53.222;6.354;2023-05-07T12:35:39;101850.00;;;22.70
38114;BMP180;23926;53.222;6.354;2023-05-07T12:38:09;101832.00;;;22.60
38114;BMP180;23926;53.222;6.354;2023-05-07T12:40:36;101851.00;;;22.60
38114;BMP180;23926;53.222;6.354;2023-05-07T12:43:02;101836.00;;;22.80
38114;BMP180;23926;53.222;6.354;2023-05-07T12:45:27;101842.00;;;22.80
38114;BMP180;23926;53.222;6.354;2023-05-07T12:47:53;101850.00;;;23.00
38114;BMP180;23926;53.222;6.354;2023-05-07T12:50:18;101853.00;;;23.20
38114;BMP180;23926;53.222;6.354;2023-05-07T12:52:45;101844.00;;;23.40
38114;BMP180;23926;53.222;6.354;2023-05-07T12:55:14;101844.00;;;23.80
38114;BMP180;23926;53.222;6.354;2023-05-07T12:57:47;101850.00;;;23.90
38114;BMP180;23926;53.222;6.354;2023-05-07T13:00:14;101848.00;;;24.20
38114;BMP180;23926;53.222;6.354;2023-05-07T13:02:41;101844.00;;;24.70
38114;BMP180;23926;53.222;6.354;2023-05-07T13:05:09;101843.00;;;25.20
38114;BMP180;23926;53.222;6.354;2023-05-07T13:07:34;101849.00;;;25.40
38114;BMP180;23926;53.222;6.354;2023-05-07T13:10:00;101855.00;;;25.50
38114;BMP180;23926;53.222;6.354;2023-05-07T13:12:25;101855.00;;;25.50
38114;BMP180;23926;53.222;6.354;2023-05-07T13:14:51;101851.00;;;25.30
38114;BMP180;23926;53.222;6.354;2023-05-07T13:17:16;101854.00;;;25.10
38114;BMP180;23926;53.222;6.354;2023-05-07T13:19:43;101849.00;;;25.10
38114;BMP180;23926;53.222;6.354;2023-05-07T13:22:09;101855.00;;;25.10
38114;BMP180;23926;53.222;6.354;2023-05-07T13:24:34;101853.00;;;25.10
38114;BMP180;23926;53.222;6.354;2023-05-07T13:26:59;101845.00;;;25.30
38114;BMP180;23926;53.222;6.354;2023-05-07T13:29:26;101845.00;;;25.40
38114;BMP180;23926;53.222;6.354;2023-05-07T13:31:56;101852.00;;;25.50
38114;BMP180;23926;53.222;6.354;2023-05-07T13:34:21;101850.00;;;25.40
38114;BMP180;23926;53.222;6.354;2023-05-07T13:36:47;101851.00;;;25.20
38114;BMP180;23926;53.222;6.354;2023-05-07T13:39:12;101854.00;;;24.80
38114;BMP180;23926;53.222;6.354;2023-05-07T13:41:38;101858.00;;;24.70
38114;BMP180;23926;53.222;6.354;2023-05-07T13:44:03;101855.00;;;24.80
38114;BMP180;23926;53.222;6.354;2023-05-07T13:46:29;101853.00;;;25.00
38114;BMP180;23926;53.222;6.354;2023-05-07T13:48:55;101846.00;;;25.00
38114;BMP180;23926;53.222;6.354;2023-05-07T13:51:20;101850.00;;;25.10
38114;BMP180;23926;53.222;6.354;2023-05-07T13:53:46;101845.00;;;25.10
38114;BMP180;23926;53.222;6.354;2023-05-07T13:56:12;101853.00;;;25.00
38114;BMP180;23926;53.222;6.354;2023-05-07T13:58:37;101845.00;;;25.00
38114;BMP180;23926;53.222;6.354;2023-05-07T14:01:03;101841.00;;;25.00
38114;BMP180;23926;53.222;6.354;2023-05-07T14:03:28;101831.00;;;24.90